Skip Navigation Links
NOAA logo - Click to go to the NOAA homepage
NOAA's National Weather Service
Alaska Aviation Weather Unit
  NWS logo - Click to go to the NWS homepage
Left Navbar Graphic     02 AKDT = 10 GMT

   
NOAA is celebrating 200 years of science, service, and stewardship. Visit the NOAA 200th celebration Web site to learn more.
USA.gov is the U.S. Government's official Web portal to all Federal, state and local government Web resources and services.
Facebook
NWS on Facebook

AAWU Home :: Display TAF Add Bookmark
METAR PAKP 290416Z AUTO 19010KT 10SM CLR M14/M19 A2955 RMK AO1 TSNO=

METAR PAKP 290436Z AUTO 19009KT 10SM CLR M13/M19 A2955 RMK AO1 TSNO=

METAR PAKP 290456Z AUTO 19010KT 10SM CLR M13/M18 A2956 RMK AO1 TSNO=

METAR PAKP 290516Z AUTO 18010KT 10SM CLR M13/M18 A2956 RMK AO1 TSNO=

METAR PAKP 290536Z AUTO 22006KT 10SM CLR M13/M18 A2956 RMK AO1 TSNO=

METAR PAKP 290556Z AUTO 19007KT 10SM CLR M14/M19 A2956 RMK AO1 11120
 21170 52010 TSNO=

METAR PAKP 290616Z AUTO 20007KT 10SM SCT060 M13/M18 A2957 RMK AO1=

METAR PAKP 290636Z AUTO 18007KT 10SM FEW060 M14/M19 A2958 RMK AO1=

PAKP 290656Z AUTO 19006KT 10SM CLR M14/M19 A2958 RMK AO1=

METAR PAKP 290716Z AUTO 19006KT 10SM CLR M14/M18 A2959 RMK AO1=

METAR PAKP 290736Z AUTO 16009KT 10SM SCT060 M14/M19 A2959 RMK AO1=

METAR PAKP 290756Z AUTO 18007KT 10SM FEW060 M14/M20 A2959 RMK AO1=

METAR PAKP 290816Z AUTO 18008KT 10SM CLR M14/M18 A2959 RMK AO1=

METAR PAKP 290836Z AUTO 18005KT 10SM CLR M14/M19 A2960 RMK AO1=

METAR PAKP 290856Z AUTO 21004KT 10SM SCT046 M14/M20 A2960 RMK AO1
     52014=

METAR PAKP 290916Z AUTO 19006KT 10SM OVC046 M14/M18 A2960 RMK AO1=

METAR PAKP 290936Z AUTO 19009KT 10SM OVC046 M13/M18 A2959 RMK AO1=

PAKP 290956Z AUTO 19007KT 10SM BKN044 M14/M19 A2960 RMK AO1=

METAR PAKP 291016Z AUTO 21004KT 10SM BKN042 M14/M19 A2960 RMK AO1=

METAR PAKP 291036Z AUTO 22004KT 10SM BKN042 M14/M19 A2960 RMK AO1=


NOAA's National Weather Service
Alaska Aviation Weather Unit
6930 Sand Lake Road
Anchorage, AK 99502-1845
Disclaimer
Credits
Glossary
Privacy Policy
About Us
Career Opportunities
Contact AAWU Internet Services Site last modified: April, 17th 2012